Time;durP1;ratioP1;P1;durP2;ratioP2;P2;SDS_P1;SDS_P2;PMS_P1;PMS_P2;Temp;Humidity;BMP_temperature;BMP_pressure;BME280_temperature;BME280_humidity;BME280_pressure;Samples;Min_cycle;Max_cycle;Signal;HPM_P1;HPM_P2
2022/05/24 10:48:08;;;;;;;4.82;0.90;;;18.20;99.90;;;-144.05;48.04;125687.94;4979774;28;20153;-88
2022/05/24 10:50:46;;;;;;;1.75;1.10;;;18.80;99.90;;;-144.05;48.13;125687.94;4979594;28;20058;-88
2022/05/24 10:53:41;;;;;;;2.80;0.90;;;19.00;99.90;;;-144.05;47.94;125687.94;4980047;28;20038;-87
2022/05/24 10:56:39;;;;;;;2.42;1.02;;;18.70;99.90;;;-144.05;49.69;125687.94;4980859;28;20135;-86
2022/05/24 10:59:52;;;;;;;2.75;1.02;;;18.40;99.90;;;-144.05;49.90;125687.94;4998203;28;20058;-88
2022/05/24 11:02:37;;;;;;;4.32;1.27;;;18.10;99.90;;;-144.05;49.18;125687.94;4988959;28;20502;-89
2022/05/24 11:05:52;;;;;;;2.65;1.15;;;18.80;99.90;;;-144.05;46.98;125687.94;4981960;28;20166;-85
2022/05/24 11:09:00;;;;;;;4.68;1.10;;;19.60;99.90;;;-144.05;44.80;125687.94;4960021;28;20043;-87
2022/05/24 11:12:09;;;;;;;5.97;1.50;;;19.60;99.90;;;-144.05;44.94;125687.94;4999118;28;20061;-88
2022/05/24 11:15:00;;;;;;;5.20;1.00;;;19.50;99.90;;;-144.05;44.87;125687.94;4998420;28;20030;-90
2022/05/24 11:17:26;;;;;;;4.35;1.10;;;19.50;99.90;;;-144.05;44.93;125687.94;4982551;28;20403;-87
2022/05/24 11:19:56;;;;;;;3.10;1.13;;;19.40;99.90;;;-144.05;43.60;125687.94;4999680;28;20027;-87
2022/05/24 11:22:41;;;;;;;5.38;1.15;;;19.50;99.90;;;-144.05;45.03;125687.94;4997148;28;20082;-88
2022/05/24 11:25:32;;;;;;;3.38;1.20;;;19.90;99.90;;;-144.05;42.72;125687.94;4997148;28;20030;-88
2022/05/24 11:28:01;;;;;;;1.35;0.88;;;20.30;99.90;;;-144.05;41.88;125687.94;4997315;28;20085;-86
2022/05/24 11:30:30;;;;;;;3.90;0.80;;;20.60;95.50;;;-144.05;43.64;125687.94;4980993;28;20031;-88
2022/05/24 11:33:14;;;;;;;2.40;1.20;;;20.80;99.90;;;-144.05;44.04;125687.94;4978681;28;20027;-83
2022/05/24 11:35:52;;;;;;;2.33;0.73;;;20.90;99.90;;;-144.05;40.05;125687.94;4979047;28;20065;-84
2022/05/24 11:38:23;;;;;;;4.75;1.23;;;21.10;88.20;;;-144.05;41.10;125687.94;4982392;28;20027;-88
2022/05/24 11:41:09;;;;;;;6.18;1.60;;;20.90;91.00;;;-144.05;41.31;125687.94;4987260;28;20051;-85
2022/05/24 11:43:46;;;;;;;2.90;0.80;;;20.50;91.50;;;-144.05;41.43;125687.94;4987130;28;20097;-88
2022/05/24 11:46:34;;;;;;;3.28;1.00;;;19.80;91.90;;;-144.05;43.53;125687.94;4986620;28;20034;-87
2022/05/24 11:49:37;;;;;;;2.10;0.70;;;19.10;99.70;;;-144.05;44.77;125687.94;4981787;28;20093;-86
2022/05/24 11:52:44;;;;;;;2.17;0.80;;;18.50;99.90;;;-144.05;46.63;125687.94;4980404;28;20034;-88
2022/05/24 11:55:45;;;;;;;;;;;18.00;99.90;;;-144.05;46.28;125687.94;4996421;28;20027;-86
2022/05/24 11:58:20;;;;;;;2.47;1.00;;;17.80;99.90;;;-144.05;46.17;125687.94;4979095;28;19925;-85
2022/05/24 12:01:17;;;;;;;3.53;1.08;;;17.80;99.90;;;-144.05;46.19;125687.94;4978696;28;20460;-87
2022/05/24 12:10:34;;;;;;;2.78;1.08;;;17.40;99.90;;;-144.05;47.21;125687.94;4995846;28;20054;-88
2022/05/24 12:13:03;;;;;;;2.42;1.00;;;17.80;99.90;;;-144.05;46.17;125687.94;4980072;28;20028;-87
2022/05/24 12:15:33;;;;;;;5.15;1.13;;;18.40;99.90;;;-144.05;44.83;125687.94;4977518;28;20027;-87
2022/05/24 12:17:59;;;;;;;3.40;1.10;;;19.10;99.90;;;-144.05;44.78;125687.94;4976810;28;20034;-86
2022/05/24 12:20:33;;;;;;;3.38;1.45;;;19.30;99.90;;;-144.05;44.01;125687.94;4976892;28;20329;-87
2022/05/24 12:23:14;;;;;;;2.15;1.40;;;19.30;99.90;;;-144.05;43.89;125687.94;4976561;28;20034;-84
2022/05/24 12:26:15;;;;;;;5.18;1.35;;;19.20;99.90;;;-144.05;43.54;125687.94;4976753;28;20047;-87
2022/05/24 12:28:57;;;;;;;3.58;1.08;;;19.50;99.90;;;-144.05;42.88;125687.94;4978378;28;20031;-87
2022/05/24 12:31:23;;;;;;;4.53;1.00;;;19.90;99.90;;;-144.05;42.28;125687.94;4994544;28;20023;-87
2022/05/24 12:34:13;;;;;;;3.00;0.90;;;20.10;99.90;;;-144.05;43.22;125687.94;4978225;28;20583;-86
2022/05/24 12:36:44;;;;;;;2.60;0.95;;;20.20;99.90;;;-144.05;41.55;125687.94;4977010;28;20371;-86
2022/05/24 12:39:17;;;;;;;5.72;0.80;;;20.30;99.30;;;-144.05;40.20;125687.94;4976549;28;20035;-87
2022/05/24 12:41:59;;;;;;;6.00;1.00;;;20.90;93.70;;;-144.05;40.83;125687.94;4993472;28;20057;-88
2022/05/24 12:44:47;;;;;;;1.85;0.88;;;20.70;93.50;;;-144.05;40.67;125687.94;4976998;28;20062;-87
2022/05/24 12:47:20;;;;;;;1.08;0.60;;;20.20;92.50;;;-144.05;41.52;125687.94;4977279;28;20031;-88
2022/05/24 12:49:49;;;;;;;2.78;0.90;;;19.90;95.20;;;-144.05;41.00;125687.94;4992119;28;20483;-88
2022/05/24 12:52:24;;;;;;;1.90;0.60;;;19.50;93.70;;;-144.05;41.92;125687.94;4977566;28;20122;-87
2022/05/24 12:55:07;;;;;;;2.30;0.63;;;19.40;96.60;;;-144.05;42.10;125687.94;4978300;28;20034;-85
2022/05/24 12:57:44;;;;;;;2.35;0.60;;;19.50;99.90;;;-144.05;41.80;125687.94;4994432;28;20045;-86
2022/05/24 13:00:26;;;;;;;2.25;0.60;;;19.60;98.30;;;-144.05;41.58;125687.94;4977755;28;20436;-88
2022/05/24 13:02:54;;;;;;;2.65;0.95;;;19.40;97.10;;;-144.05;40.66;125687.94;4976672;28;20466;-87
2022/05/24 13:05:29;;;;;;;2.60;0.90;;;19.10;92.70;;;-144.05;42.67;125687.94;4976953;28;20035;-87
2022/05/24 13:08:01;;;;;;;1.95;0.85;;;18.80;99.90;;;-144.05;44.08;125687.94;4992514;28;20047;-86
2022/05/24 13:10:38;;;;;;;1.60;0.80;;;18.60;99.90;;;-144.05;42.75;125687.94;4990722;28;20019;-86
2022/05/24 13:13:22;;;;;;;1.27;0.77;;;18.50;99.90;;;-144.05;42.77;125687.94;4976317;28;20467;-90
2022/05/24 13:16:04;;;;;;;2.72;0.80;;;18.40;99.90;;;-144.05;44.10;125687.94;4976927;28;20038;-86
2022/05/24 13:18:49;;;;;;;2.80;0.70;;;18.20;99.90;;;-144.05;43.34;125687.94;4976070;28;20046;-88
2022/05/24 13:21:26;;;;;;;2.95;0.60;;;18.20;99.90;;;-144.05;42.90;125687.94;4991392;28;20031;-87
2022/05/24 13:24:15;;;;;;;1.23;0.60;;;18.00;99.90;;;-144.05;43.31;125687.94;4976329;28;20035;-87
2022/05/24 13:27:08;;;;;;;6.55;1.10;;;17.90;99.90;;;-144.05;47.71;125687.94;4976843;28;20031;-90
2022/05/24 13:33:33;;;;;;;2.83;0.88;;;17.70;99.90;;;-144.05;46.33;125687.94;4977017;28;20035;-91
2022/05/24 13:35:08;;;;;;;2.63;0.80;;;17.40;99.90;;;-144.05;48.10;125687.94;4979490;28;20033;-85
2022/05/24 13:37:57;;;;;;;2.45;0.90;;;17.30;99.90;;;-144.05;48.27;125687.94;4977856;28;20038;-88
2022/05/24 13:40:51;;;;;;;1.65;0.60;;;17.30;99.90;;;-144.05;45.66;125687.94;4994701;28;20050;-86
2022/05/24 13:43:47;;;;;;;2.17;0.88;;;17.40;99.90;;;-144.05;48.19;125687.94;4977221;28;20038;-88
2022/05/24 13:46:25;;;;;;;2.53;0.80;;;17.40;99.90;;;-144.05;47.07;125687.94;4993439;28;20047;-89
2022/05/24 13:49:00;;;;;;;4.00;0.75;;;17.60;99.90;;;-144.05;45.13;125687.94;4977174;28;20097;-88
2022/05/24 13:51:34;;;;;;;1.90;0.70;;;17.60;99.90;;;-144.05;44.10;125687.94;4977054;28;20050;-84
2022/05/24 13:54:03;;;;;;;1.45;0.50;;;17.70;99.90;;;-144.05;42.34;125687.94;4975441;28;20089;-86
2022/05/24 13:56:47;;;;;;;2.17;0.60;;;17.80;99.90;;;-144.05;41.77;125687.94;4976191;28;20035;-86
2022/05/24 13:59:23;;;;;;;4.45;0.57;;;18.10;99.90;;;-144.05;41.50;125687.94;4975088;28;20372;-86
2022/05/24 14:02:14;;;;;;;2.38;0.60;;;18.20;97.50;;;-144.05;40.63;125687.94;4975844;28;20063;-85
2022/05/24 14:04:51;;;;;;;1.33;0.50;;;18.40;94.80;;;-144.05;40.91;125687.94;4976935;28;20042;-87
2022/05/24 14:07:28;;;;;;;1.55;0.60;;;18.80;95.70;;;-144.05;40.29;125687.94;4977426;28;20471;-88
2022/05/24 14:09:56;;;;;;;2.83;0.38;;;19.30;93.60;;;-144.05;38.24;125687.94;4975191;28;20034;-90
2022/05/24 14:12:23;;;;;;;1.63;0.43;;;19.60;83.50;;;-144.05;36.91;125687.94;4955803;28;20031;-87
2022/05/24 14:14:50;;;;;;;2.45;0.47;;;19.70;76.10;;;-144.05;36.77;125687.94;4956679;28;20487;-89
2022/05/24 14:17:16;;;;;;;1.83;0.52;;;19.80;75.60;;;-144.05;37.34;125687.94;4975796;28;20043;-86
2022/05/24 14:19:43;;;;;;;1.08;0.50;;;19.90;75.60;;;-144.05;37.29;125687.94;4965958;28;20040;-87
2022/05/24 14:22:10;;;;;;;3.35;0.70;;;20.10;77.80;;;-144.05;37.65;125687.94;4972233;28;20024;-86
2022/05/24 14:24:43;;;;;;;0.65;0.45;;;20.10;77.40;;;-144.05;37.84;125687.94;4955876;28;20046;-86
2022/05/24 14:27:12;;;;;;;2.40;0.80;;;20.00;76.90;;;-144.05;37.41;125687.94;4972461;28;20035;-85
2022/05/24 14:29:39;;;;;;;2.40;0.60;;;19.90;75.50;;;-144.05;37.78;125687.94;4955629;28;20059;-90
2022/05/24 14:32:08;;;;;;;2.30;0.57;;;19.70;76.60;;;-144.05;39.06;125687.94;4972781;28;20039;-86
2022/05/24 14:34:34;;;;;;;1.08;0.52;;;19.30;80.00;;;-144.05;40.89;125687.94;4955220;28;20373;-86
2022/05/24 14:37:00;;;;;;;3.88;0.95;;;18.80;89.60;;;-144.05;42.48;125687.94;4971244;28;20031;-86
2022/05/24 14:39:27;;;;;;;1.90;1.00;;;18.30;96.00;;;-144.05;44.29;125687.94;4956138;28;20035;-87
2022/05/24 14:41:53;;;;;;;1.88;0.65;;;18.00;99.90;;;-144.05;45.08;125687.94;4958929;28;20105;-87
2022/05/24 14:44:35;;;;;;;2.78;0.88;;;17.60;99.90;;;-144.05;48.01;125687.94;4958793;28;20031;-83
2022/05/24 14:47:03;;;;;;;1.88;0.70;;;17.30;99.90;;;-144.05;48.78;125687.94;4960386;28;20028;-86
2022/05/24 14:49:30;;;;;;;3.22;1.00;;;17.20;99.90;;;-144.05;49.05;125687.94;4959701;28;20035;-88
2022/05/24 14:52:03;;;;;;;2.55;0.65;;;17.20;99.90;;;-144.05;48.37;125687.94;4959110;28;20039;-87
2022/05/24 14:54:30;;;;;;;1.60;0.60;;;17.30;99.90;;;-144.05;47.75;125687.94;4958113;28;20592;-85
2022/05/24 14:56:57;;;;;;;1.80;0.77;;;17.50;99.90;;;-144.05;47.06;125687.94;4960194;28;20046;-85
2022/05/24 14:59:25;;;;;;;1.30;0.77;;;17.60;99.90;;;-144.05;45.87;125687.94;4958348;28;20391;-87
2022/05/24 15:01:52;;;;;;;0.63;0.43;;;17.90;99.90;;;-144.05;44.04;125687.94;4958030;28;20122;-86
2022/05/24 15:04:18;;;;;;;2.45;0.73;;;18.10;99.90;;;-144.05;43.84;125687.94;4958516;28;20027;-84
2022/05/24 15:06:49;;;;;;;1.13;0.60;;;18.10;99.90;;;-144.05;43.82;125687.94;4959562;28;20039;-83
2022/05/24 15:17:34;;;;;;;3.05;0.70;;;19.10;94.60;;;-144.05;39.05;125687.94;4994856;23;20047;-84
2022/05/24 15:20:16;;;;;;;2.10;0.70;;;19.20;90.00;;;-144.05;40.00;125687.94;4979738;28;20090;-86
2022/05/24 15:22:54;;;;;;;1.25;0.70;;;19.30;93.10;;;-144.05;39.10;125687.94;4980053;28;20042;-86
2022/05/24 15:25:29;;;;;;;1.00;0.45;;;19.30;90.00;;;-144.05;38.96;125687.94;4980636;28;20033;-84
2022/05/24 15:28:00;;;;;;;2.47;0.90;;;19.10;88.30;;;-144.05;40.65;125687.94;4997325;28;20413;-85
2022/05/24 15:30:27;;;;;;;0.90;0.50;;;19.00;93.40;;;-144.05;40.57;125687.94;4981801;28;20106;-87
2022/05/24 15:32:54;;;;;;;1.65;0.57;;;18.80;93.30;;;-144.05;41.21;125687.94;4980891;28;20034;-86
2022/05/24 15:35:21;;;;;;;0.85;0.40;;;18.80;96.70;;;-144.05;41.52;125687.94;4981324;28;20030;-87
2022/05/24 15:37:47;;;;;;;4.78;1.00;;;18.90;97.00;;;-144.05;39.53;125687.94;4981174;28;20029;-83
2022/05/24 15:40:13;;;;;;;2.33;0.70;;;19.00;91.20;;;-144.05;39.75;125687.94;4996568;28;20023;-86
2022/05/24 15:42:39;;;;;;;2.08;0.68;;;19.30;91.00;;;-144.05;39.70;125687.94;4982760;28;20027;-85
2022/05/24 15:45:06;;;;;;;4.30;0.93;;;19.20;91.00;;;-144.05;40.51;125687.94;4996743;28;20035;-85
2022/05/24 15:47:32;;;;;;;1.67;0.90;;;18.80;92.00;;;-144.05;41.62;125687.94;4996754;28;20121;-87
2022/05/24 15:49:59;;;;;;;1.48;0.68;;;18.40;95.20;;;-144.05;42.32;125687.94;4982966;28;20042;-86
2022/05/24 15:52:26;;;;;;;2.25;0.55;;;18.00;98.00;;;-144.05;42.84;125687.94;4998648;28;20026;-85
2022/05/24 15:54:52;;;;;;;1.98;0.52;;;17.90;99.90;;;-144.05;42.19;125687.94;4982718;28;20483;-86
2022/05/24 15:57:20;;;;;;;2.45;0.70;;;18.00;99.00;;;-144.05;42.51;125687.94;4980026;28;20027;-86
2022/05/24 15:59:47;;;;;;;4.30;0.70;;;18.00;99.90;;;-144.05;43.31;125687.94;4995108;28;20057;-87
2022/05/24 16:02:14;;;;;;;3.72;0.90;;;18.00;99.90;;;-144.05;44.02;125687.94;4980920;28;20035;-86
2022/05/24 16:10:19;;;;;;;2.42;1.02;;;18.00;99.90;;;-144.05;44.27;125687.94;4979413;28;20078;-85
2022/05/24 16:12:51;;;;;;;;;;;17.80;99.90;;;-144.05;43.18;125687.94;4978978;28;20019;-85
2022/05/24 16:15:25;;;;;;;1.92;0.88;;;17.50;99.90;;;-144.05;45.37;125687.94;4980133;28;19910;-85
2022/05/24 16:18:06;;;;;;;1.63;1.00;;;17.30;99.90;;;-144.05;45.69;125687.94;4994702;28;20043;-87
2022/05/24 16:20:43;;;;;;;1.55;0.88;;;17.20;99.90;;;-144.05;44.97;125687.94;4979719;28;20058;-86
2022/05/24 16:23:13;;;;;;;3.22;0.68;;;17.30;99.90;;;-144.05;45.68;125687.94;4997944;28;20034;-84
2022/05/24 16:25:40;;;;;;;2.38;0.85;;;17.30;99.90;;;-144.05;45.23;125687.94;4991076;28;20030;-85
2022/05/24 16:28:11;;;;;;;0.98;0.60;;;17.40;99.90;;;-144.05;45.06;125687.94;5009013;28;20062;-85
2022/05/24 16:30:40;;;;;;;0.88;0.55;;;17.30;99.90;;;-144.05;45.68;125687.94;4982113;28;20030;-86
2022/05/24 16:33:10;;;;;;;3.50;0.63;;;17.30;99.90;;;-144.05;44.71;125687.94;4980423;28;20027;-85
2022/05/24 16:35:38;;;;;;;1.30;0.70;;;17.30;99.90;;;-144.05;44.96;125687.94;4993856;28;20498;-85
2022/05/24 16:38:05;;;;;;;1.25;0.82;;;17.20;99.90;;;-144.05;45.78;125687.94;4992569;28;20035;-87
2022/05/24 16:40:31;;;;;;;1.88;0.73;;;17.00;99.90;;;-144.05;45.24;125687.94;4978883;28;20030;-86
2022/05/24 16:42:57;;;;;;;1.27;0.85;;;16.90;99.90;;;-144.05;45.90;125687.94;4977827;28;20546;-88
2022/05/24 16:45:24;;;;;;;1.95;0.90;;;16.80;99.90;;;-144.05;45.04;125687.94;4976757;28;20080;-86
2022/05/24 16:47:50;;;;;;;2.05;0.60;;;16.70;99.90;;;-144.05;45.59;125687.94;4991129;28;20031;-86
2022/05/24 16:50:17;;;;;;;2.60;0.82;;;16.70;99.90;;;-144.05;46.14;125687.94;4992132;28;20278;-85
2022/05/24 16:52:43;;;;;;;2.80;0.88;;;16.70;99.90;;;-144.05;46.00;125687.94;4991987;28;20039;-86
2022/05/24 17:00:39;;;;;;;3.88;0.90;;;16.70;99.90;;;-144.05;44.87;125687.94;4978681;28;20099;-85
2022/05/24 17:03:06;;;;;;;4.03;0.77;;;16.70;99.90;;;-144.05;45.39;125687.94;4992387;28;20031;-87
2022/05/24 17:05:34;;;;;;;2.13;0.60;;;16.70;99.90;;;-144.05;44.76;125687.94;4992217;28;20043;-86
2022/05/24 17:08:06;;;;;;;1.65;0.80;;;16.70;99.90;;;-144.05;45.38;125687.94;4977268;28;20030;-88
2022/05/24 17:10:33;;;;;;;3.63;0.80;;;16.80;99.90;;;-144.05;44.97;125687.94;4991670;28;20477;-86
2022/05/24 17:13:03;;;;;;;2.88;1.13;;;16.80;99.90;;;-144.05;44.96;125687.94;4991794;28;20027;-85
2022/05/24 17:15:30;;;;;;;1.50;0.60;;;16.80;99.90;;;-144.05;45.49;125687.94;4975285;28;20077;-87
2022/05/24 17:17:56;;;;;;;2.92;0.80;;;16.70;99.90;;;-144.05;45.23;125687.94;4975099;28;20107;-84
2022/05/24 17:20:28;;;;;;;2.40;0.47;;;16.70;99.90;;;-144.05;44.34;125687.94;4975384;28;20027;-84
2022/05/24 17:22:55;;;;;;;3.33;0.80;;;16.60;99.90;;;-144.05;45.03;125687.94;4975911;28;20027;-86
2022/05/24 17:25:22;;;;;;;2.83;0.93;;;16.60;99.90;;;-144.05;45.24;125687.94;4975171;28;20030;-86
2022/05/24 17:27:50;;;;;;;2.25;0.50;;;16.50;99.90;;;-144.05;45.02;125687.94;4975702;28;20066;-85
2022/05/24 17:30:22;;;;;;;1.00;0.50;;;16.50;99.90;;;-144.05;45.67;125687.94;4974297;28;20026;-84
2022/05/24 17:33:03;;;;;;;3.53;0.75;;;16.40;99.90;;;-144.05;46.04;125687.94;4976139;28;20644;-86
2022/05/24 17:35:30;;;;;;;2.20;0.68;;;16.40;99.90;;;-144.05;46.09;125687.94;4976561;28;20057;-86
2022/05/24 17:37:56;;;;;;;1.55;0.50;;;16.30;99.90;;;-144.05;46.90;125687.94;4974715;28;20026;-86
2022/05/24 17:40:22;;;;;;;2.20;0.50;;;16.20;99.90;;;-144.05;47.31;125687.94;4976147;28;20336;-85
2022/05/24 17:42:51;;;;;;;2.60;0.63;;;16.20;99.90;;;-144.05;46.95;125687.94;4974924;28;20027;-85
2022/05/24 17:45:23;;;;;;;1.73;0.50;;;16.20;99.90;;;-144.05;46.78;125687.94;4974986;28;20018;-85
2022/05/24 17:47:53;;;;;;;2.63;1.05;;;16.20;99.90;;;-144.05;46.95;125687.94;4974669;28;20591;-86
2022/05/24 17:50:21;;;;;;;3.28;0.88;;;16.30;99.90;;;-144.05;46.55;125687.94;4974837;28;20034;-87
2022/05/24 17:52:48;;;;;;;1.17;0.57;;;16.30;99.90;;;-144.05;46.16;125687.94;4976397;28;20023;-86
2022/05/24 17:55:14;;;;;;;2.17;0.80;;;16.30;99.90;;;-144.05;47.26;125687.94;4974804;28;20033;-86
2022/05/24 17:57:40;;;;;;;2.50;1.00;;;16.30;99.90;;;-144.05;47.28;125687.94;4975224;28;20038;-84
2022/05/24 18:00:09;;;;;;;1.25;0.80;;;16.20;99.90;;;-144.05;47.36;125687.94;4974562;28;20461;-88
2022/05/24 18:02:37;;;;;;;1.38;0.63;;;16.10;99.90;;;-144.05;47.84;125687.94;4990916;28;20035;-86
2022/05/24 18:05:09;;;;;;;2.30;0.90;;;16.10;99.90;;;-144.05;48.54;125687.94;4975995;28;20547;-86
2022/05/24 18:07:36;;;;;;;2.25;1.00;;;15.90;99.90;;;-144.05;49.33;125687.94;4975964;28;20058;-87
2022/05/24 18:10:09;;;;;;;2.05;0.95;;;15.80;99.90;;;-144.05;49.90;125687.94;4975157;28;20027;-87
2022/05/24 18:12:38;;;;;;;2.08;0.82;;;15.70;99.90;;;-144.05;50.32;125687.94;4974604;28;20027;-87
2022/05/24 18:15:06;;;;;;;2.58;0.80;;;15.60;99.90;;;-144.05;50.61;125687.94;4976814;28;20022;-87
2022/05/24 18:17:32;;;;;;;1.58;0.80;;;15.60;99.90;;;-144.05;51.29;125687.94;4980327;28;20038;-87
2022/05/24 18:19:58;;;;;;;1.42;0.82;;;15.50;99.90;;;-144.05;52.03;125687.94;4980220;28;20102;-86
2022/05/24 18:22:34;;;;;;;2.97;0.80;;;15.50;99.90;;;-144.05;51.59;125687.94;4980384;28;20037;-86
2022/05/24 18:33:58;;;;;;;1.88;1.00;;;15.40;99.90;;;-144.05;52.47;125687.94;4981976;28;20411;-86
2022/05/24 18:36:34;;;;;;;4.20;1.27;;;15.40;99.90;;;-144.05;52.55;125687.94;4981048;28;20026;-85
2022/05/24 18:39:00;;;;;;;;;;;15.30;99.90;;;-144.05;52.84;125687.94;4989921;28;20447;-85
2022/05/24 18:41:26;;;;;;;3.78;1.20;;;15.30;99.90;;;-144.05;52.94;125687.94;4990441;28;19952;-86
2022/05/24 18:43:53;;;;;;;1.80;1.00;;;15.20;99.90;;;-144.05;52.67;125687.94;4994606;28;20422;-84
2022/05/24 18:46:22;;;;;;;2.25;0.73;;;15.20;99.90;;;-144.05;52.79;125687.94;4980584;28;20082;-84
2022/05/24 18:48:48;;;;;;;5.22;1.05;;;15.10;99.90;;;-144.05;52.85;125687.94;4980396;28;20031;-84
2022/05/24 18:51:14;;;;;;;2.38;0.63;;;15.10;99.90;;;-144.05;50.25;125687.94;4978525;28;20065;-85
2022/05/24 18:53:40;;;;;;;0.65;0.50;;;15.00;99.90;;;-144.05;49.43;125687.94;4978278;28;20109;-85
2022/05/24 18:56:06;;;;;;;1.75;0.60;;;15.10;99.90;;;-144.05;48.39;125687.94;4980361;28;20031;-85
2022/05/24 18:58:42;;;;;;;2.60;0.40;;;15.00;99.90;;;-144.05;47.74;125687.94;4986528;28;20035;-85
2022/05/24 19:01:16;;;;;;;1.60;0.40;;;14.90;99.90;;;-144.05;48.19;125687.94;4995108;28;20509;-86
2022/05/24 19:03:42;;;;;;;3.60;0.60;;;14.90;99.90;;;-144.05;48.18;125687.94;4996651;28;20515;-85
2022/05/24 19:06:07;;;;;;;2.10;0.45;;;14.80;99.90;;;-144.05;48.22;125687.94;4980016;28;20074;-84
2022/05/24 19:08:33;;;;;;;1.48;0.60;;;14.80;99.90;;;-144.05;47.93;125687.94;4981638;28;20034;-85
2022/05/24 19:10:59;;;;;;;1.50;0.75;;;14.80;99.90;;;-144.05;48.72;125687.94;4994624;28;20116;-86
2022/05/24 19:13:26;;;;;;;1.23;0.50;;;14.70;99.90;;;-144.05;48.75;125687.94;4978393;28;20043;-86
2022/05/24 19:15:52;;;;;;;2.20;0.75;;;14.70;99.90;;;-144.05;49.19;125687.94;4980864;28;20150;-83
2022/05/24 19:18:21;;;;;;;1.35;0.60;;;14.70;99.90;;;-144.05;49.72;125687.94;4979582;28;20126;-86
2022/05/24 19:20:47;;;;;;;2.15;0.60;;;14.60;99.90;;;-144.05;50.09;125687.94;4978783;28;20035;-88
2022/05/24 19:23:13;;;;;;;2.10;0.50;;;14.50;99.90;;;-144.05;50.72;125687.94;4979399;28;20034;-83
2022/05/24 19:25:41;;;;;;;2.05;0.55;;;14.50;99.90;;;-144.05;50.87;125687.94;4978894;28;20082;-86
2022/05/24 19:28:07;;;;;;;1.42;0.70;;;14.40;99.90;;;-144.05;51.08;125687.94;4977034;28;20035;-85
2022/05/24 19:30:34;;;;;;;0.70;0.43;;;14.40;99.90;;;-144.05;51.62;125687.94;4979338;28;20038;-85
2022/05/24 19:33:00;;;;;;;1.38;0.68;;;14.20;99.90;;;-144.05;51.94;125687.94;4980091;28;20026;-85
2022/05/24 19:35:26;;;;;;;0.98;0.50;;;14.20;99.90;;;-144.05;52.35;125687.94;4979948;28;20055;-88
2022/05/24 19:37:52;;;;;;;1.42;0.40;;;14.10;99.90;;;-144.05;52.94;125687.94;4978014;28;20089;-86
2022/05/24 19:43:05;;;;;;;1.05;0.60;;;13.90;99.90;;;-144.05;53.66;125687.94;4980170;28;20122;-86
2022/05/24 19:45:31;;;;;;;1.33;0.47;;;13.90;99.90;;;-144.05;53.81;125687.94;4979664;28;20037;-86
2022/05/24 19:47:58;;;;;;;1.90;0.80;;;13.90;99.90;;;-144.05;54.36;125687.94;4978528;28;20479;-86
2022/05/24 19:50:23;;;;;;;2.30;0.60;;;13.70;99.90;;;-144.05;54.44;125687.94;4994350;28;20030;-84
2022/05/24 19:52:53;;;;;;;1.35;0.45;;;13.70;99.90;;;-144.05;54.59;125687.94;4977846;28;20023;-86
2022/05/24 19:55:21;;;;;;;2.45;0.50;;;13.60;99.90;;;-144.05;55.14;125687.94;4977742;28;20033;-85
2022/05/24 19:57:47;;;;;;;2.35;0.70;;;13.60;99.90;;;-144.05;55.13;125687.94;4978731;28;20106;-84
2022/05/24 20:00:16;;;;;;;1.70;0.68;;;13.60;99.90;;;-144.05;55.43;125687.94;4978327;28;20118;-85
2022/05/24 20:02:42;;;;;;;2.90;0.80;;;13.60;99.90;;;-144.05;55.54;125687.94;4979180;28;20054;-84
2022/05/24 20:05:13;;;;;;;2.70;0.85;;;13.50;99.90;;;-144.05;55.92;125687.94;4977845;28;20042;-85
2022/05/24 20:07:44;;;;;;;0.98;0.75;;;13.50;99.90;;;-144.05;56.24;125687.94;4976938;28;20038;-84
2022/05/24 20:10:11;;;;;;;1.58;1.08;;;13.40;99.90;;;-144.05;56.02;125687.94;4978909;28;20497;-86
2022/05/24 20:12:38;;;;;;;2.13;0.90;;;13.40;99.90;;;-144.05;56.33;125687.94;4977671;28;20062;-84
2022/05/24 20:15:05;;;;;;;2.72;1.15;;;13.40;99.90;;;-144.05;56.53;125687.94;4979618;28;20022;-87
2022/05/24 20:17:31;;;;;;;1.58;0.90;;;13.40;99.90;;;-144.05;56.89;125687.94;4978206;28;20038;-86
2022/05/24 20:19:57;;;;;;;3.60;1.30;;;13.40;99.90;;;-144.05;57.08;125687.94;4994379;28;20495;-86
2022/05/24 20:22:23;;;;;;;2.33;0.90;;;13.40;99.90;;;-144.05;57.53;125687.94;4994108;28;20042;-85
2022/05/24 20:24:49;;;;;;;2.80;1.15;;;13.30;99.90;;;-144.05;57.87;125687.94;4979502;28;20035;-85
2022/05/24 20:27:21;;;;;;;1.70;0.90;;;13.30;99.90;;;-144.05;57.73;125687.94;4979210;28;20514;-86
2022/05/24 20:29:50;;;;;;;1.23;0.90;;;13.40;99.90;;;-144.05;58.01;125687.94;4979460;28;20101;-86
2022/05/24 20:32:17;;;;;;;3.00;0.70;;;13.30;99.90;;;-144.05;58.32;125687.94;4992322;28;20075;-84
2022/05/24 20:34:45;;;;;;;1.90;0.75;;;13.30;99.90;;;-144.05;58.75;125687.94;4996625;28;20047;-83
2022/05/24 20:37:17;;;;;;;2.10;1.10;;;13.20;99.90;;;-144.05;59.08;125687.94;5011055;28;20194;-83
2022/05/24 20:39:44;;;;;;;1.88;1.05;;;13.20;99.90;;;-144.05;59.50;125687.94;4995402;28;20030;-83
2022/05/24 20:42:15;;;;;;;2.63;1.25;;;13.30;99.90;;;-144.05;59.71;125687.94;5011549;28;20133;-84
2022/05/24 20:44:42;;;;;;;4.13;0.98;;;13.20;99.90;;;-144.05;60.04;125687.94;4995961;28;20045;-85
2022/05/24 20:47:11;;;;;;;2.58;0.90;;;13.10;99.90;;;-144.05;59.94;125687.94;4983526;28;20058;-86
2022/05/24 20:49:38;;;;;;;2.65;1.10;;;13.10;99.90;;;-144.05;60.47;125687.94;5001340;28;20031;-84
2022/05/24 20:52:08;;;;;;;2.25;1.00;;;13.10;99.90;;;-144.05;60.58;125687.94;4995295;28;20045;-84
2022/05/24 20:54:36;;;;;;;1.90;0.95;;;13.00;99.90;;;-144.05;61.15;125687.94;4996536;28;20015;-85
2022/05/24 20:57:04;;;;;;;1.95;0.98;;;13.00;99.90;;;-144.05;61.09;125687.94;4993836;28;20041;-86
2022/05/24 20:59:31;;;;;;;1.80;0.90;;;12.90;99.90;;;-144.05;61.27;125687.94;4977044;28;20037;-85
2022/05/24 21:01:57;;;;;;;4.40;0.90;;;12.80;99.90;;;-144.05;62.12;125687.94;4978158;28;20038;-86
2022/05/24 21:04:29;;;;;;;1.85;0.90;;;12.80;99.90;;;-144.05;62.93;125687.94;4978654;28;20035;-86
2022/05/24 21:06:56;;;;;;;2.63;0.90;;;12.70;99.90;;;-144.05;62.72;125687.94;4996224;28;20038;-85
2022/05/24 21:09:22;;;;;;;1.00;0.90;;;12.70;99.90;;;-144.05;63.13;125687.94;4994649;28;20022;-84
2022/05/24 21:11:48;;;;;;;2.92;0.98;;;12.60;99.90;;;-144.05;63.71;125687.94;4978937;28;20062;-86
2022/05/24 21:14:14;;;;;;;1.73;0.90;;;12.60;99.90;;;-144.05;63.57;125687.94;4979252;28;20478;-85
2022/05/24 21:16:40;;;;;;;1.83;0.70;;;12.60;99.90;;;-144.05;63.79;125687.94;4978283;28;20034;-84
2022/05/24 21:19:07;;;;;;;2.72;1.08;;;12.50;99.90;;;-144.05;63.80;125687.94;4977054;28;20100;-85
2022/05/24 21:21:36;;;;;;;3.65;0.90;;;12.50;99.90;;;-144.05;64.25;125687.94;4977106;28;20534;-87
2022/05/24 21:24:03;;;;;;;4.57;1.52;;;12.40;99.90;;;-144.05;64.34;125687.94;4977265;28;20035;-86
2022/05/24 21:29:14;;;;;;;2.83;1.00;;;12.30;99.90;;;-144.05;64.92;125687.94;4977954;28;20033;-85
2022/05/24 21:31:40;;;;;;;2.33;0.90;;;12.30;99.90;;;-144.05;64.99;125687.94;4978032;28;20031;-85
2022/05/24 21:34:06;;;;;;;1.88;0.93;;;12.20;99.90;;;-144.05;65.40;125687.94;4977435;28;20058;-87
2022/05/24 21:36:33;;;;;;;5.15;1.38;;;12.20;99.90;;;-144.05;65.42;125687.94;4977415;28;20031;-84
2022/05/24 21:38:59;;;;;;;2.53;1.10;;;12.20;99.90;;;-144.05;65.92;125687.94;4977765;28;20027;-88
2022/05/24 21:41:25;;;;;;;3.72;1.15;;;12.10;99.90;;;-144.05;66.29;125687.94;4975645;28;20486;-83
2022/05/24 21:43:51;;;;;;;3.63;1.17;;;12.10;99.90;;;-144.05;66.63;125687.94;4976316;28;20043;-84
2022/05/24 21:46:17;;;;;;;1.95;1.10;;;12.10;99.90;;;-144.05;66.46;125687.94;4976832;28;20106;-86
2022/05/24 21:48:45;;;;;;;3.85;1.10;;;12.10;99.90;;;-144.05;66.62;125687.94;4976638;28;20037;-84
2022/05/24 21:51:13;;;;;;;2.03;0.82;;;12.10;99.90;;;-144.05;66.64;125687.94;4976226;28;20022;-84